sensor_id;sensor_type;location;lat;lon;timestamp;pressure;altitude;pressure_sealevel;temperature;humidity
37610;BME280;23457;51.966;8.230;2023-04-05T00:00:26;101807.63;;;3.35;72.91
37610;BME280;23457;51.966;8.230;2023-04-05T00:02:53;101808.16;;;3.29;73.48
37610;BME280;23457;51.966;8.230;2023-04-05T00:05:21;101802.47;;;3.35;73.30
37610;BME280;23457;51.966;8.230;2023-04-05T00:07:59;101808.03;;;3.28;72.63
37610;BME280;23457;51.966;8.230;2023-04-05T00:10:28;101801.13;;;3.27;71.99
37610;BME280;23457;51.966;8.230;2023-04-05T00:12:58;101791.16;;;3.18;72.54
37610;BME280;23457;51.966;8.230;2023-04-05T00:15:26;101791.94;;;3.17;71.82
37610;BME280;23457;51.966;8.230;2023-04-05T00:17:53;101791.56;;;3.11;72.11
37610;BME280;23457;51.966;8.230;2023-04-05T00:20:20;101796.50;;;3.08;72.92
37610;BME280;23457;51.966;8.230;2023-04-05T00:22:47;101797.72;;;3.00;72.29
37610;BME280;23457;51.966;8.230;2023-04-05T00:25:16;101794.25;;;2.86;71.43
37610;BME280;23457;51.966;8.230;2023-04-05T00:27:43;101790.91;;;2.87;72.07
37610;BME280;23457;51.966;8.230;2023-04-05T00:30:10;101799.19;;;2.83;72.20
37610;BME280;23457;51.966;8.230;2023-04-05T00:32:47;101791.41;;;2.68;72.67
37610;BME280;23457;51.966;8.230;2023-04-05T00:35:16;101796.25;;;2.64;72.63
37610;BME280;23457;51.966;8.230;2023-04-05T00:37:43;101793.47;;;2.61;73.18
37610;BME280;23457;51.966;8.230;2023-04-05T00:40:09;101788.03;;;2.69;73.36
37610;BME280;23457;51.966;8.230;2023-04-05T00:42:36;101787.94;;;2.68;74.07
37610;BME280;23457;51.966;8.230;2023-04-05T00:45:07;101787.03;;;2.67;74.49
37610;BME280;23457;51.966;8.230;2023-04-05T00:47:33;101784.31;;;2.64;74.59
37610;BME280;23457;51.966;8.230;2023-04-05T00:50:00;101788.81;;;2.55;75.91
37610;BME280;23457;51.966;8.230;2023-04-05T00:52:28;101779.75;;;2.60;75.50
37610;BME280;23457;51.966;8.230;2023-04-05T00:54:56;101780.44;;;2.44;75.73
37610;BME280;23457;51.966;8.230;2023-04-05T00:57:24;101772.53;;;2.41;75.92
37610;BME280;23457;51.966;8.230;2023-04-05T00:59:51;101768.09;;;2.39;76.42
37610;BME280;23457;51.966;8.230;2023-04-05T01:02:31;101766.72;;;2.44;76.58
37610;BME280;23457;51.966;8.230;2023-04-05T01:05:03;101768.34;;;2.17;76.99
37610;BME280;23457;51.966;8.230;2023-04-05T01:08:01;101776.47;;;2.23;77.16
37610;BME280;23457;51.966;8.230;2023-04-05T01:10:34;101775.25;;;2.18;77.74
37610;BME280;23457;51.966;8.230;2023-04-05T01:13:04;101778.25;;;2.24;78.30
37610;BME280;23457;51.966;8.230;2023-04-05T01:15:32;101778.22;;;2.11;79.17
37610;BME280;23457;51.966;8.230;2023-04-05T01:17:59;101772.03;;;2.21;78.96
37610;BME280;23457;51.966;8.230;2023-04-05T01:20:36;101765.78;;;2.17;77.74
37610;BME280;23457;51.966;8.230;2023-04-05T01:23:37;101764.63;;;2.12;77.88
37610;BME280;23457;51.966;8.230;2023-04-05T01:26:22;101766.53;;;2.03;78.33
37610;BME280;23457;51.966;8.230;2023-04-05T01:31:59;101765.69;;;2.02;79.98
37610;BME280;23457;51.966;8.230;2023-04-05T01:37:30;101772.00;;;2.07;79.21
37610;BME280;23457;51.966;8.230;2023-04-05T01:39:58;101760.78;;;1.80;79.56
37610;BME280;23457;51.966;8.230;2023-04-05T01:42:26;101761.09;;;1.85;79.55
37610;BME280;23457;51.966;8.230;2023-04-05T01:44:54;101755.66;;;1.80;79.83
37610;BME280;23457;51.966;8.230;2023-04-05T01:47:21;101753.09;;;1.80;79.43
37610;BME280;23457;51.966;8.230;2023-04-05T01:49:48;101749.53;;;1.78;80.19
37610;BME280;23457;51.966;8.230;2023-04-05T01:52:15;101751.53;;;1.83;80.04
37610;BME280;23457;51.966;8.230;2023-04-05T01:54:42;101745.41;;;1.80;80.95
37610;BME280;23457;51.966;8.230;2023-04-05T01:57:08;101744.81;;;1.85;80.30
37610;BME280;23457;51.966;8.230;2023-04-05T01:59:35;101742.16;;;1.83;80.58
37610;BME280;23457;51.966;8.230;2023-04-05T02:02:02;101742.22;;;1.71;80.99
37610;BME280;23457;51.966;8.230;2023-04-05T02:04:29;101735.28;;;1.57;82.14
37610;BME280;23457;51.966;8.230;2023-04-05T02:06:56;101734.91;;;1.64;82.23
37610;BME280;23457;51.966;8.230;2023-04-05T02:09:22;101730.16;;;1.57;82.12
37610;BME280;23457;51.966;8.230;2023-04-05T02:11:49;101736.63;;;1.52;82.22
37610;BME280;23457;51.966;8.230;2023-04-05T02:14:16;101735.88;;;1.66;81.99
37610;BME280;23457;51.966;8.230;2023-04-05T02:16:43;101732.72;;;1.57;82.69
37610;BME280;23457;51.966;8.230;2023-04-05T02:19:10;101731.50;;;1.52;81.82
37610;BME280;23457;51.966;8.230;2023-04-05T02:21:38;101740.97;;;1.53;82.61
37610;BME280;23457;51.966;8.230;2023-04-05T02:24:06;101734.88;;;1.51;82.07
37610;BME280;23457;51.966;8.230;2023-04-05T02:26:33;101735.66;;;1.50;82.22
37610;BME280;23457;51.966;8.230;2023-04-05T02:28:59;101726.53;;;1.42;83.33
37610;BME280;23457;51.966;8.230;2023-04-05T02:31:26;101727.31;;;1.41;83.54
37610;BME280;23457;51.966;8.230;2023-04-05T02:33:53;101726.34;;;1.39;84.53
37610;BME280;23457;51.966;8.230;2023-04-05T02:36:20;101722.97;;;1.40;84.71
37610;BME280;23457;51.966;8.230;2023-04-05T02:38:47;101730.75;;;1.41;84.26
37610;BME280;23457;51.966;8.230;2023-04-05T02:41:14;101726.34;;;1.39;83.79
37610;BME280;23457;51.966;8.230;2023-04-05T02:43:41;101727.69;;;1.34;83.41
37610;BME280;23457;51.966;8.230;2023-04-05T02:46:07;101721.34;;;1.29;83.81
37610;BME280;23457;51.966;8.230;2023-04-05T02:48:38;101728.97;;;1.16;84.66
37610;BME280;23457;51.966;8.230;2023-04-05T02:51:06;101726.00;;;1.10;85.60
37610;BME280;23457;51.966;8.230;2023-04-05T02:53:33;101723.06;;;1.17;85.54
37610;BME280;23457;51.966;8.230;2023-04-05T02:56:03;101723.19;;;1.18;85.04
37610;BME280;23457;51.966;8.230;2023-04-05T02:58:34;101730.19;;;1.21;84.09
37610;BME280;23457;51.966;8.230;2023-04-05T03:01:01;101727.47;;;1.31;84.75
37610;BME280;23457;51.966;8.230;2023-04-05T03:03:33;101729.25;;;1.32;84.18
37610;BME280;23457;51.966;8.230;2023-04-05T03:06:04;101728.44;;;1.08;85.17
37610;BME280;23457;51.966;8.230;2023-04-05T03:08:41;101731.56;;;1.04;85.72
37610;BME280;23457;51.966;8.230;2023-04-05T03:11:12;101737.34;;;1.01;85.86
37610;BME280;23457;51.966;8.230;2023-04-05T03:13:42;101731.53;;;1.16;85.87
37610;BME280;23457;51.966;8.230;2023-04-05T03:16:19;101723.75;;;1.14;85.60
37610;BME280;23457;51.966;8.230;2023-04-05T03:18:48;101724.63;;;1.15;85.48
37610;BME280;23457;51.966;8.230;2023-04-05T03:21:15;101728.34;;;1.06;85.74
37610;BME280;23457;51.966;8.230;2023-04-05T03:23:53;101721.03;;;0.99;86.49
37610;BME280;23457;51.966;8.230;2023-04-05T03:26:26;101718.47;;;0.99;86.80
37610;BME280;23457;51.966;8.230;2023-04-05T03:28:53;101724.91;;;0.94;86.80
37610;BME280;23457;51.966;8.230;2023-04-05T03:31:26;101721.34;;;0.92;86.79
37610;BME280;23457;51.966;8.230;2023-04-05T03:33:58;101722.25;;;0.93;86.24
37610;BME280;23457;51.966;8.230;2023-04-05T03:36:29;101721.81;;;0.98;86.54
37610;BME280;23457;51.966;8.230;2023-04-05T03:39:16;101720.81;;;0.96;86.45
37610;BME280;23457;51.966;8.230;2023-04-05T03:41:42;101719.28;;;0.87;86.65
37610;BME280;23457;51.966;8.230;2023-04-05T03:44:10;101712.78;;;0.92;86.25
37610;BME280;23457;51.966;8.230;2023-04-05T03:46:37;101714.91;;;0.97;85.94
37610;BME280;23457;51.966;8.230;2023-04-05T03:49:05;101713.69;;;0.92;85.83
37610;BME280;23457;51.966;8.230;2023-04-05T03:51:32;101708.44;;;0.91;86.43
37610;BME280;23457;51.966;8.230;2023-04-05T03:53:59;101711.78;;;0.90;85.74
37610;BME280;23457;51.966;8.230;2023-04-05T03:56:31;101709.19;;;1.01;86.20
37610;BME280;23457;51.966;8.230;2023-04-05T03:59:06;101705.06;;;1.03;86.15
37610;BME280;23457;51.966;8.230;2023-04-05T04:01:33;101699.13;;;0.80;86.44
37610;BME280;23457;51.966;8.230;2023-04-05T04:04:03;101694.69;;;0.77;86.48
37610;BME280;23457;51.966;8.230;2023-04-05T04:06:30;101702.69;;;0.82;86.07
37610;BME280;23457;51.966;8.230;2023-04-05T04:08:57;101700.28;;;0.71;86.31
37610;BME280;23457;51.966;8.230;2023-04-05T04:11:24;101699.72;;;0.64;86.98
37610;BME280;23457;51.966;8.230;2023-04-05T04:13:51;101702.19;;;0.62;87.27
37610;BME280;23457;51.966;8.230;2023-04-05T04:16:34;101703.50;;;0.69;87.12
37610;BME280;23457;51.966;8.230;2023-04-05T04:19:21;101697.16;;;0.64;87.07
37610;BME280;23457;51.966;8.230;2023-04-05T04:22:26;101701.72;;;0.68;86.87
37610;BME280;23457;51.966;8.230;2023-04-05T04:25:18;101697.41;;;0.44;88.10
37610;BME280;23457;51.966;8.230;2023-04-05T04:28:00;101701.06;;;0.59;87.91
37610;BME280;23457;51.966;8.230;2023-04-05T04:30:50;101700.72;;;0.54;87.87
37610;BME280;23457;51.966;8.230;2023-04-05T04:33:38;101705.88;;;0.43;88.29
37610;BME280;23457;51.966;8.230;2023-04-05T04:36:38;101694.06;;;0.45;88.03
37610;BME280;23457;51.966;8.230;2023-04-05T04:39:28;101701.41;;;0.40;88.34
37610;BME280;23457;51.966;8.230;2023-04-05T04:42:11;101696.41;;;0.42;88.48
37610;BME280;23457;51.966;8.230;2023-04-05T04:45:04;101704.72;;;0.51;88.29
37610;BME280;23457;51.966;8.230;2023-04-05T04:47:50;101697.28;;;0.54;88.24
37610;BME280;23457;51.966;8.230;2023-04-05T04:50:37;101696.50;;;0.55;87.43
37610;BME280;23457;51.966;8.230;2023-04-05T04:53:04;101695.72;;;0.56;87.81
37610;BME280;23457;51.966;8.230;2023-04-05T04:55:32;101686.94;;;0.52;87.85
37610;BME280;23457;51.966;8.230;2023-04-05T04:57:59;101695.72;;;0.56;87.88
37610;BME280;23457;51.966;8.230;2023-04-05T05:00:25;101702.31;;;0.41;88.23
37610;BME280;23457;51.966;8.230;2023-04-05T05:02:54;101700.09;;;0.33;88.67
37610;BME280;23457;51.966;8.230;2023-04-05T05:05:21;101692.97;;;0.29;88.91
37610;BME280;23457;51.966;8.230;2023-04-05T05:07:49;101701.22;;;0.37;89.22
37610;BME280;23457;51.966;8.230;2023-04-05T05:10:16;101708.09;;;0.26;89.61
37610;BME280;23457;51.966;8.230;2023-04-05T05:12:44;101710.97;;;0.31;89.75
37610;BME280;23457;51.966;8.230;2023-04-05T05:15:13;101707.75;;;0.33;89.39
37610;BME280;23457;51.966;8.230;2023-04-05T05:17:40;101706.75;;;0.31;89.47
37610;BME280;23457;51.966;8.230;2023-04-05T05:20:09;101705.63;;;0.16;90.15
37610;BME280;23457;51.966;8.230;2023-04-05T05:22:39;101706.88;;;0.10;90.89
37610;BME280;23457;51.966;8.230;2023-04-05T05:25:06;101709.88;;;0.27;90.71
37610;BME280;23457;51.966;8.230;2023-04-05T05:27:34;101710.56;;;0.25;90.37
37610;BME280;23457;51.966;8.230;2023-04-05T05:30:01;101703.09;;;0.28;90.54
37610;BME280;23457;51.966;8.230;2023-04-05T05:32:28;101704.97;;;0.30;90.29
37610;BME280;23457;51.966;8.230;2023-04-05T05:34:55;101705.41;;;0.13;90.63
37610;BME280;23457;51.966;8.230;2023-04-05T05:37:32;101704.44;;;0.11;91.44
37610;BME280;23457;51.966;8.230;2023-04-05T05:39:59;101707.88;;;0.23;91.34
37610;BME280;23457;51.966;8.230;2023-04-05T05:42:26;101708.53;;;0.32;91.18
37610;BME280;23457;51.966;8.230;2023-04-05T05:44:53;101701.19;;;0.49;90.58
37610;BME280;23457;51.966;8.230;2023-04-05T05:47:19;101703.84;;;0.62;90.33
37610;BME280;23457;51.966;8.230;2023-04-05T05:49:46;101704.47;;;0.83;89.79
37610;BME280;23457;51.966;8.230;2023-04-05T05:52:15;101699.28;;;1.06;89.10
37610;BME280;23457;51.966;8.230;2023-04-05T05:54:41;101692.66;;;1.21;88.01
37610;BME280;23457;51.966;8.230;2023-04-05T05:57:08;101693.63;;;1.35;87.65
37610;BME280;23457;51.966;8.230;2023-04-05T05:59:35;101694.50;;;1.60;86.66
37610;BME280;23457;51.966;8.230;2023-04-05T06:02:01;101701.59;;;1.77;85.23
37610;BME280;23457;51.966;8.230;2023-04-05T06:04:28;101697.13;;;1.87;83.90
37610;BME280;23457;51.966;8.230;2023-04-05T06:06:56;101689.44;;;2.00;83.29
37610;BME280;23457;51.966;8.230;2023-04-05T06:09:22;101684.50;;;2.16;82.18
37610;BME280;23457;51.966;8.230;2023-04-05T06:11:52;101685.03;;;2.24;81.08
37610;BME280;23457;51.966;8.230;2023-04-05T06:14:23;101686.38;;;2.32;80.11
37610;BME280;23457;51.966;8.230;2023-04-05T06:16:51;101690.63;;;2.44;79.90
37610;BME280;23457;51.966;8.230;2023-04-05T06:19:17;101690.41;;;2.55;79.54
37610;BME280;23457;51.966;8.230;2023-04-05T06:21:44;101694.38;;;2.63;78.75
37610;BME280;23457;51.966;8.230;2023-04-05T06:24:13;101692.97;;;2.68;76.98
37610;BME280;23457;51.966;8.230;2023-04-05T06:26:40;101687.03;;;2.69;76.43
37610;BME280;23457;51.966;8.230;2023-04-05T06:29:07;101689.13;;;2.74;75.05
37610;BME280;23457;51.966;8.230;2023-04-05T06:31:34;101693.31;;;3.00;74.21
37610;BME280;23457;51.966;8.230;2023-04-05T06:34:02;101694.88;;;2.98;72.99
37610;BME280;23457;51.966;8.230;2023-04-05T06:36:29;101700.31;;;3.03;72.40
37610;BME280;23457;51.966;8.230;2023-04-05T06:38:57;101700.59;;;3.07;71.13
37610;BME280;23457;51.966;8.230;2023-04-05T06:41:25;101700.22;;;3.29;70.52
37610;BME280;23457;51.966;8.230;2023-04-05T06:43:53;101693.47;;;3.31;69.29
37610;BME280;23457;51.966;8.230;2023-04-05T06:46:20;101699.66;;;3.20;68.91
37610;BME280;23457;51.966;8.230;2023-04-05T06:48:47;101699.69;;;3.35;68.63
37610;BME280;23457;51.966;8.230;2023-04-05T06:51:15;101691.63;;;3.29;67.90
37610;BME280;23457;51.966;8.230;2023-04-05T06:53:42;101690.69;;;3.13;68.29
37610;BME280;23457;51.966;8.230;2023-04-05T06:56:09;101692.94;;;3.22;68.03
37610;BME280;23457;51.966;8.230;2023-04-05T06:58:36;101689.63;;;3.38;68.76
37610;BME280;23457;51.966;8.230;2023-04-05T07:01:03;101690.28;;;3.63;67.38
37610;BME280;23457;51.966;8.230;2023-04-05T07:03:30;101689.56;;;3.66;65.89
37610;BME280;23457;51.966;8.230;2023-04-05T07:05:59;101677.59;;;3.95;63.74
37610;BME280;23457;51.966;8.230;2023-04-05T07:08:27;101693.59;;;4.05;62.88
37610;BME280;23457;51.966;8.230;2023-04-05T07:10:54;101681.47;;;4.18;63.18
37610;BME280;23457;51.966;8.230;2023-04-05T07:13:22;101681.84;;;4.24;63.13
37610;BME280;23457;51.966;8.230;2023-04-05T07:15:50;101674.91;;;4.38;62.25
37610;BME280;23457;51.966;8.230;2023-04-05T07:18:17;101669.06;;;4.57;61.34
37610;BME280;23457;51.966;8.230;2023-04-05T07:20:46;101670.78;;;4.11;61.47
37610;BME280;23457;51.966;8.230;2023-04-05T07:23:14;101674.22;;;4.26;61.33
37610;BME280;23457;51.966;8.230;2023-04-05T07:25:42;101669.97;;;4.12;61.75
37610;BME280;23457;51.966;8.230;2023-04-05T07:28:09;101672.34;;;4.09;62.96
37610;BME280;23457;51.966;8.230;2023-04-05T07:30:36;101673.13;;;4.37;61.50
37610;BME280;23457;51.966;8.230;2023-04-05T07:33:03;101671.97;;;4.32;61.51
37610;BME280;23457;51.966;8.230;2023-04-05T07:35:30;101671.84;;;4.45;60.92
37610;BME280;23457;51.966;8.230;2023-04-05T07:37:56;101671.25;;;4.80;61.24
37610;BME280;23457;51.966;8.230;2023-04-05T07:40:23;101668.13;;;5.02;59.59
37610;BME280;23457;51.966;8.230;2023-04-05T07:42:50;101661.50;;;5.07;60.75
37610;BME280;23457;51.966;8.230;2023-04-05T07:45:16;101667.47;;;5.06;60.56
37610;BME280;23457;51.966;8.230;2023-04-05T07:47:43;101667.19;;;4.85;60.67
37610;BME280;23457;51.966;8.230;2023-04-05T07:50:10;101663.75;;;4.85;60.41
37610;BME280;23457;51.966;8.230;2023-04-05T07:52:41;101663.34;;;5.10;59.59
37610;BME280;23457;51.966;8.230;2023-04-05T07:55:08;101660.28;;;5.33;57.48
37610;BME280;23457;51.966;8.230;2023-04-05T07:57:35;101666.50;;;5.36;58.30
37610;BME280;23457;51.966;8.230;2023-04-05T08:00:03;101667.22;;;5.50;58.14
37610;BME280;23457;51.966;8.230;2023-04-05T08:02:38;101670.84;;;5.54;58.84
37610;BME280;23457;51.966;8.230;2023-04-05T08:05:05;101672.50;;;5.69;56.89
37610;BME280;23457;51.966;8.230;2023-04-05T08:07:32;101674.88;;;5.83;56.28
37610;BME280;23457;51.966;8.230;2023-04-05T08:09:59;101670.22;;;5.92;55.90
37610;BME280;23457;51.966;8.230;2023-04-05T08:12:26;101669.59;;;5.80;56.40
37610;BME280;23457;51.966;8.230;2023-04-05T08:14:53;101665.34;;;5.98;56.85
37610;BME280;23457;51.966;8.230;2023-04-05T08:17:19;101661.88;;;5.97;55.41
37610;BME280;23457;51.966;8.230;2023-04-05T08:19:46;101655.41;;;6.23;54.69
37610;BME280;23457;51.966;8.230;2023-04-05T08:22:14;101653.22;;;6.31;54.07
37610;BME280;23457;51.966;8.230;2023-04-05T08:24:43;101653.13;;;6.11;54.75
37610;BME280;23457;51.966;8.230;2023-04-05T08:27:10;101663.59;;;6.15;54.68
37610;BME280;23457;51.966;8.230;2023-04-05T08:29:37;101658.22;;;6.28;54.86
37610;BME280;23457;51.966;8.230;2023-04-05T08:32:04;101644.66;;;6.32;53.20
37610;BME280;23457;51.966;8.230;2023-04-05T08:34:31;101652.69;;;6.38;53.08
37610;BME280;23457;51.966;8.230;2023-04-05T08:36:58;101656.50;;;6.46;53.23
37610;BME280;23457;51.966;8.230;2023-04-05T08:39:25;101651.56;;;6.51;53.30
37610;BME280;23457;51.966;8.230;2023-04-05T08:42:17;101649.72;;;6.66;53.65
37610;BME280;23457;51.966;8.230;2023-04-05T08:44:46;101652.47;;;6.88;52.15
37610;BME280;23457;51.966;8.230;2023-04-05T08:47:22;101658.72;;;6.93;53.55
37610;BME280;23457;51.966;8.230;2023-04-05T08:49:49;101657.84;;;7.12;51.93
37610;BME280;23457;51.966;8.230;2023-04-05T08:52:15;101653.56;;;7.12;51.85
37610;BME280;23457;51.966;8.230;2023-04-05T08:54:42;101659.69;;;6.95;50.47
37610;BME280;23457;51.966;8.230;2023-04-05T08:57:09;101661.97;;;6.89;51.03
37610;BME280;23457;51.966;8.230;2023-04-05T08:59:37;101658.88;;;6.96;50.84
37610;BME280;23457;51.966;8.230;2023-04-05T09:02:14;101656.38;;;7.17;51.21
37610;BME280;23457;51.966;8.230;2023-04-05T09:04:43;101654.72;;;7.38;51.53
37610;BME280;23457;51.966;8.230;2023-04-05T09:07:14;101648.88;;;7.63;50.72
37610;BME280;23457;51.966;8.230;2023-04-05T09:09:52;101655.53;;;7.57;49.67
37610;BME280;23457;51.966;8.230;2023-04-05T09:12:22;101652.19;;;7.80;50.29
37610;BME280;23457;51.966;8.230;2023-04-05T09:14:51;101649.03;;;7.87;50.05
37610;BME280;23457;51.966;8.230;2023-04-05T09:17:17;101657.09;;;7.74;47.86
37610;BME280;23457;51.966;8.230;2023-04-05T09:19:47;101643.75;;;7.84;49.01
37610;BME280;23457;51.966;8.230;2023-04-05T09:22:16;101650.56;;;8.03;47.94
37610;BME280;23457;51.966;8.230;2023-04-05T09:24:45;101640.38;;;7.66;47.45
37610;BME280;23457;51.966;8.230;2023-04-05T09:27:17;101645.53;;;7.85;47.22
37610;BME280;23457;51.966;8.230;2023-04-05T09:29:53;101635.28;;;8.09;49.09
37610;BME280;23457;51.966;8.230;2023-04-05T09:32:24;101644.66;;;8.27;48.91
37610;BME280;23457;51.966;8.230;2023-04-05T09:34:53;101632.56;;;8.49;47.04
37610;BME280;23457;51.966;8.230;2023-04-05T09:37:28;101624.56;;;8.65;47.60
37610;BME280;23457;51.966;8.230;2023-04-05T09:40:02;101629.44;;;9.02;46.52
37610;BME280;23457;51.966;8.230;2023-04-05T09:42:42;101627.50;;;8.74;45.89
37610;BME280;23457;51.966;8.230;2023-04-05T09:45:10;101625.06;;;9.01;47.99
37610;BME280;23457;51.966;8.230;2023-04-05T09:47:55;101624.63;;;8.89;45.37
37610;BME280;23457;51.966;8.230;2023-04-05T09:50:25;101621.75;;;8.81;46.60
37610;BME280;23457;51.966;8.230;2023-04-05T09:53:08;101618.09;;;9.00;47.18
37610;BME280;23457;51.966;8.230;2023-04-05T09:55:35;101622.84;;;8.88;45.02
37610;BME280;23457;51.966;8.230;2023-04-05T09:58:02;101616.13;;;8.93;45.43
37610;BME280;23457;51.966;8.230;2023-04-05T10:00:29;101610.25;;;8.97;45.70
37610;BME280;23457;51.966;8.230;2023-04-05T10:02:57;101617.44;;;8.37;45.65
37610;BME280;23457;51.966;8.230;2023-04-05T10:05:26;101616.19;;;8.94;47.14
37610;BME280;23457;51.966;8.230;2023-04-05T10:07:57;101611.38;;;9.29;46.74
37610;BME280;23457;51.966;8.230;2023-04-05T10:10:24;101609.88;;;9.59;46.27
37610;BME280;23457;51.966;8.230;2023-04-05T10:12:52;101606.28;;;9.56;44.06
37610;BME280;23457;51.966;8.230;2023-04-05T10:15:19;101613.81;;;9.01;44.77
37610;BME280;23457;51.966;8.230;2023-04-05T10:17:59;101613.97;;;8.81;44.43
37610;BME280;23457;51.966;8.230;2023-04-05T10:20:29;101613.13;;;8.58;46.03
37610;BME280;23457;51.966;8.230;2023-04-05T10:22:59;101598.91;;;9.19;45.48
37610;BME280;23457;51.966;8.230;2023-04-05T10:28:09;101592.78;;;9.17;44.66
37610;BME280;23457;51.966;8.230;2023-04-05T10:30:43;101591.63;;;9.83;44.80
37610;BME280;23457;51.966;8.230;2023-04-05T10:33:30;101581.75;;;9.98;45.67
37610;BME280;23457;51.966;8.230;2023-04-05T10:38:55;101594.31;;;10.38;43.62
37610;BME280;23457;51.966;8.230;2023-04-05T10:41:26;101600.72;;;10.51;43.66
37610;BME280;23457;51.966;8.230;2023-04-05T10:43:55;101596.75;;;10.92;42.04
37610;BME280;23457;51.966;8.230;2023-04-05T10:46:23;101586.44;;;10.95;40.96
37610;BME280;23457;51.966;8.230;2023-04-05T10:51:54;101577.84;;;10.68;43.91
37610;BME280;23457;51.966;8.230;2023-04-05T10:54:21;101577.50;;;10.86;43.41
37610;BME280;23457;51.966;8.230;2023-04-05T10:56:48;101585.59;;;10.66;41.51
37610;BME280;23457;51.966;8.230;2023-04-05T10:59:16;101580.63;;;10.74;41.76
37610;BME280;23457;51.966;8.230;2023-04-05T11:01:45;101574.97;;;10.03;41.28
37610;BME280;23457;51.966;8.230;2023-04-05T11:04:16;101574.19;;;10.06;41.69
37610;BME280;23457;51.966;8.230;2023-04-05T11:06:43;101571.44;;;10.57;41.63
37610;BME280;23457;51.966;8.230;2023-04-05T11:09:16;101563.25;;;11.04;43.34
37610;BME280;23457;51.966;8.230;2023-04-05T11:11:43;101566.88;;;11.09;39.72
37610;BME280;23457;51.966;8.230;2023-04-05T11:14:25;101560.56;;;11.33;40.02
37610;BME280;23457;51.966;8.230;2023-04-05T11:17:00;101561.50;;;11.35;39.46
37610;BME280;23457;51.966;8.230;2023-04-05T11:22:10;101553.31;;;11.87;39.81
37610;BME280;23457;51.966;8.230;2023-04-05T11:24:55;101546.97;;;11.76;40.97
37610;BME280;23457;51.966;8.230;2023-04-05T11:27:24;101548.19;;;11.92;41.00
37610;BME280;23457;51.966;8.230;2023-04-05T11:29:58;101539.00;;;12.46;40.72
37610;BME280;23457;51.966;8.230;2023-04-05T11:35:06;101556.28;;;11.69;39.05
37610;BME280;23457;51.966;8.230;2023-04-05T11:40:31;101552.19;;;11.44;40.22
37610;BME280;23457;51.966;8.230;2023-04-05T11:45:32;101530.66;;;11.50;38.84
37610;BME280;23457;51.966;8.230;2023-04-05T11:47:59;101534.41;;;11.27;40.17
37610;BME280;23457;51.966;8.230;2023-04-05T11:50:30;101532.31;;;11.46;39.13
37610;BME280;23457;51.966;8.230;2023-04-05T11:55:33;101528.63;;;10.74;39.44
37610;BME280;23457;51.966;8.230;2023-04-05T11:57:59;101515.97;;;11.52;40.12
37610;BME280;23457;51.966;8.230;2023-04-05T12:00:27;101517.03;;;11.60;37.44
37610;BME280;23457;51.966;8.230;2023-04-05T12:02:57;101520.03;;;12.13;37.26
37610;BME280;23457;51.966;8.230;2023-04-05T12:05:23;101512.91;;;12.45;38.04
37610;BME280;23457;51.966;8.230;2023-04-05T12:07:53;101514.38;;;12.32;38.18
37610;BME280;23457;51.966;8.230;2023-04-05T12:10:20;101509.66;;;12.56;38.46
37610;BME280;23457;51.966;8.230;2023-04-05T12:12:47;101511.50;;;12.61;37.34
37610;BME280;23457;51.966;8.230;2023-04-05T12:15:14;101507.47;;;12.34;37.66
37610;BME280;23457;51.966;8.230;2023-04-05T12:17:49;101501.53;;;12.85;39.40
37610;BME280;23457;51.966;8.230;2023-04-05T12:20:21;101504.38;;;12.97;37.45
37610;BME280;23457;51.966;8.230;2023-04-05T12:22:53;101490.03;;;13.20;38.33
37610;BME280;23457;51.966;8.230;2023-04-05T12:25:21;101489.75;;;13.07;37.17
37610;BME280;23457;51.966;8.230;2023-04-05T12:27:48;101492.34;;;13.52;37.14
37610;BME280;23457;51.966;8.230;2023-04-05T12:35:19;101478.38;;;14.09;35.84
37610;BME280;23457;51.966;8.230;2023-04-05T12:37:49;101474.91;;;14.78;37.86
37610;BME280;23457;51.966;8.230;2023-04-05T12:40:19;101476.00;;;14.99;34.75
37610;BME280;23457;51.966;8.230;2023-04-05T12:42:47;101456.81;;;14.25;34.89
37610;BME280;23457;51.966;8.230;2023-04-05T12:45:13;101469.38;;;13.33;35.04
37610;BME280;23457;51.966;8.230;2023-04-05T12:47:52;101470.41;;;13.41;37.64
37610;BME280;23457;51.966;8.230;2023-04-05T12:50:29;101475.38;;;13.83;35.76
37610;BME280;23457;51.966;8.230;2023-04-05T12:53:00;101470.19;;;13.29;36.16
37610;BME280;23457;51.966;8.230;2023-04-05T12:55:30;101469.97;;;13.15;34.69
37610;BME280;23457;51.966;8.230;2023-04-05T12:57:58;101470.41;;;12.49;35.44
37610;BME280;23457;51.966;8.230;2023-04-05T13:00:27;101467.75;;;12.91;39.41
37610;BME280;23457;51.966;8.230;2023-04-05T13:02:56;101455.31;;;13.24;35.06
37610;BME280;23457;51.966;8.230;2023-04-05T13:05:26;101458.09;;;12.87;35.79
37610;BME280;23457;51.966;8.230;2023-04-05T13:07:53;101458.34;;;12.99;35.33
37610;BME280;23457;51.966;8.230;2023-04-05T13:10:22;101457.88;;;12.75;35.48
37610;BME280;23457;51.966;8.230;2023-04-05T13:12:48;101460.88;;;12.09;35.49
37610;BME280;23457;51.966;8.230;2023-04-05T13:15:16;101457.94;;;11.22;37.83
37610;BME280;23457;51.966;8.230;2023-04-05T13:17:44;101451.38;;;12.54;37.87
37610;BME280;23457;51.966;8.230;2023-04-05T13:20:11;101450.59;;;13.04;35.57
37610;BME280;23457;51.966;8.230;2023-04-05T13:22:38;101446.25;;;13.54;36.00
37610;BME280;23457;51.966;8.230;2023-04-05T13:25:05;101437.00;;;14.41;34.86
37610;BME280;23457;51.966;8.230;2023-04-05T13:27:32;101441.69;;;14.70;32.04
37610;BME280;23457;51.966;8.230;2023-04-05T13:29:59;101440.38;;;13.70;34.86
37610;BME280;23457;51.966;8.230;2023-04-05T13:32:26;101438.31;;;14.10;35.33
37610;BME280;23457;51.966;8.230;2023-04-05T13:34:52;101432.88;;;14.61;34.20
37610;BME280;23457;51.966;8.230;2023-04-05T13:37:19;101430.41;;;14.07;32.77
37610;BME280;23457;51.966;8.230;2023-04-05T13:39:46;101431.13;;;13.92;32.72
37610;BME280;23457;51.966;8.230;2023-04-05T13:42:13;101424.50;;;14.20;33.49
37610;BME280;23457;51.966;8.230;2023-04-05T13:44:40;101426.88;;;14.00;32.90